createdAt,value
2017-12-29T00:00:12.298Z,2.00
2017-12-29T00:02:39.969Z,1.60
2017-12-29T00:05:07.622Z,1.90
2017-12-29T00:07:35.454Z,2.00
2017-12-29T00:10:03.869Z,1.90
2017-12-29T00:12:31.535Z,1.80
2017-12-29T00:14:59.389Z,1.80
2017-12-29T00:17:27.068Z,1.90
2017-12-29T00:19:54.699Z,1.80
2017-12-29T00:22:22.499Z,1.80
2017-12-29T00:24:50.130Z,1.80
2017-12-29T00:27:17.797Z,1.90
2017-12-29T00:29:45.649Z,1.80
2017-12-29T00:32:13.303Z,1.80
2017-12-29T00:34:41.729Z,1.90
2017-12-29T00:37:09.446Z,1.90
2017-12-29T00:39:37.106Z,1.90
2017-12-29T00:42:05.563Z,2.00
2017-12-29T00:44:33.343Z,2.00
2017-12-29T00:47:01.011Z,2.00
2017-12-29T00:49:29.422Z,2.00
2017-12-29T00:51:57.190Z,2.00
2017-12-29T00:54:24.842Z,1.90
2017-12-29T00:56:52.513Z,1.80
2017-12-29T00:59:20.300Z,1.80
2017-12-29T01:01:47.922Z,1.80
2017-12-29T01:04:15.586Z,1.70
2017-12-29T01:06:43.349Z,1.70
2017-12-29T01:09:10.965Z,1.70
2017-12-29T01:11:39.398Z,1.80
2017-12-29T01:14:07.132Z,1.80
2017-12-29T01:16:34.832Z,1.80
2017-12-29T01:19:02.474Z,1.70
2017-12-29T01:21:30.223Z,1.80
2017-12-29T01:23:57.872Z,1.70
2017-12-29T01:26:25.547Z,1.70
2017-12-29T01:28:53.246Z,1.70
2017-12-29T01:31:20.889Z,1.70
2017-12-29T01:33:48.510Z,1.70
2017-12-29T01:36:16.355Z,1.70
2017-12-29T01:38:44.061Z,1.70
2017-12-29T01:41:11.761Z,1.70
2017-12-29T01:43:39.557Z,1.70
2017-12-29T01:46:07.224Z,1.70
2017-12-29T01:48:34.922Z,1.70
2017-12-29T01:51:02.643Z,1.60
2017-12-29T01:53:30.342Z,1.50
2017-12-29T01:55:57.972Z,1.60
2017-12-29T01:58:25.716Z,1.60
2017-12-29T02:00:53.352Z,1.60
2017-12-29T02:03:20.991Z,1.60
2017-12-29T02:05:48.676Z,1.60
2017-12-29T02:08:16.312Z,1.60
2017-12-29T02:10:43.983Z,1.50
2017-12-29T02:13:11.792Z,1.60
2017-12-29T02:15:39.458Z,1.60
2017-12-29T02:18:07.081Z,1.60
2017-12-29T02:20:34.804Z,1.60
2017-12-29T02:23:02.477Z,1.60
2017-12-29T02:25:30.105Z,1.60
2017-12-29T02:27:57.863Z,1.60
2017-12-29T02:30:25.503Z,1.60
2017-12-29T02:32:53.131Z,1.70
2017-12-29T02:35:20.870Z,1.70
2017-12-29T02:37:48.548Z,1.60
2017-12-29T02:40:16.186Z,1.60
2017-12-29T02:42:44.678Z,1.70
2017-12-29T02:45:13.056Z,1.70
2017-12-29T02:47:40.727Z,1.60
2017-12-29T02:50:08.445Z,1.70
2017-12-29T02:52:36.105Z,1.80
2017-12-29T02:55:03.724Z,1.70
2017-12-29T02:57:31.424Z,1.70
2017-12-29T02:59:59.922Z,1.80
2017-12-29T03:02:27.580Z,1.80
2017-12-29T03:04:55.322Z,1.80
2017-12-29T03:07:22.960Z,1.80
2017-12-29T03:09:50.592Z,1.80
2017-12-29T03:12:18.372Z,1.80
2017-12-29T03:14:46.009Z,1.80
2017-12-29T03:17:13.640Z,1.80
2017-12-29T03:19:41.371Z,1.80
2017-12-29T03:22:09.041Z,1.80
2017-12-29T03:24:36.690Z,1.80
2017-12-29T03:27:04.541Z,1.80
2017-12-29T03:29:32.199Z,1.80
2017-12-29T03:31:59.868Z,1.80
2017-12-29T03:34:27.628Z,1.80
2017-12-29T03:36:55.264Z,1.90
2017-12-29T03:39:22.894Z,1.80
2017-12-29T03:41:50.609Z,1.90
2017-12-29T03:44:18.274Z,1.90
2017-12-29T03:46:45.911Z,1.80
2017-12-29T03:49:13.664Z,1.90
2017-12-29T03:51:41.323Z,1.90
2017-12-29T03:54:08.968Z,1.90
2017-12-29T03:56:36.704Z,1.90
2017-12-29T03:59:04.410Z,1.90
2017-12-29T04:01:32.127Z,1.80
2017-12-29T04:03:59.850Z,1.90
2017-12-29T04:06:27.527Z,2.00
2017-12-29T04:08:55.935Z,1.90
2017-12-29T04:11:23.621Z,1.90
2017-12-29T04:13:51.255Z,1.90
2017-12-29T04:16:18.918Z,1.90
2017-12-29T04:18:46.614Z,1.90
2017-12-29T04:21:14.672Z,2.10
2017-12-29T04:23:42.330Z,2.00
2017-12-29T04:26:10.138Z,2.00
2017-12-29T04:28:37.788Z,1.90
2017-12-29T04:31:05.394Z,1.90
2017-12-29T04:33:33.111Z,1.90
2017-12-29T04:36:00.729Z,1.90
2017-12-29T04:38:28.376Z,1.90
2017-12-29T04:40:56.060Z,1.90
2017-12-29T04:43:23.698Z,2.00
2017-12-29T04:45:51.359Z,1.90
2017-12-29T04:48:19.056Z,1.90
2017-12-29T04:50:46.731Z,1.90
2017-12-29T04:53:14.367Z,2.00
2017-12-29T04:55:42.087Z,2.00
2017-12-29T04:58:09.694Z,2.00
2017-12-29T05:00:37.317Z,1.90
2017-12-29T05:03:04.998Z,1.90
2017-12-29T05:05:32.633Z,2.00
2017-12-29T05:08:00.242Z,2.00
2017-12-29T05:10:27.895Z,2.00
2017-12-29T05:12:55.602Z,1.90
2017-12-29T05:15:24.008Z,2.00
2017-12-29T05:17:51.758Z,2.00
2017-12-29T05:20:19.407Z,2.00
2017-12-29T05:22:47.868Z,1.90
2017-12-29T05:25:15.552Z,1.90
2017-12-29T05:27:43.223Z,1.90
2017-12-29T05:30:10.876Z,1.90
2017-12-29T05:32:39.312Z,2.10
2017-12-29T05:35:07.024Z,2.10
2017-12-29T05:37:35.456Z,2.00
2017-12-29T05:40:03.139Z,2.00
2017-12-29T05:42:30.790Z,2.00
2017-12-29T05:44:58.430Z,2.10
2017-12-29T05:47:26.166Z,2.00
2017-12-29T05:49:53.783Z,2.00
2017-12-29T05:52:22.209Z,2.00
2017-12-29T05:54:49.850Z,2.00
2017-12-29T05:57:17.504Z,2.00
2017-12-29T05:59:45.974Z,2.00
2017-12-29T06:02:14.444Z,2.20
2017-12-29T06:04:42.099Z,2.20
2017-12-29T06:07:09.722Z,2.10
2017-12-29T06:09:37.456Z,2.00
2017-12-29T06:12:05.893Z,2.10
2017-12-29T06:14:33.517Z,2.00
2017-12-29T06:17:01.195Z,2.00
2017-12-29T06:19:28.866Z,2.00
2017-12-29T06:21:56.545Z,2.10
2017-12-29T06:24:24.260Z,2.10
2017-12-29T06:26:53.075Z,2.20
2017-12-29T06:29:20.688Z,2.10
2017-12-29T06:31:49.116Z,2.10
2017-12-29T06:34:16.826Z,2.00
2017-12-29T06:36:45.246Z,2.10
2017-12-29T06:39:13.711Z,2.10
2017-12-29T06:41:41.391Z,2.10
2017-12-29T06:44:09.026Z,2.10
2017-12-29T06:46:36.679Z,2.10
2017-12-29T06:49:04.318Z,2.10
2017-12-29T06:51:31.938Z,2.10
2017-12-29T06:53:59.598Z,2.10
2017-12-29T06:56:28.001Z,2.10
2017-12-29T06:58:55.627Z,2.10
2017-12-29T07:01:24.128Z,2.20
2017-12-29T07:03:51.758Z,2.10
2017-12-29T07:06:19.376Z,2.20
2017-12-29T07:08:47.210Z,2.20
2017-12-29T07:11:14.911Z,2.10
2017-12-29T07:13:42.566Z,2.10
2017-12-29T07:16:10.292Z,2.20
2017-12-29T07:18:37.942Z,2.20
2017-12-29T07:21:05.639Z,2.20
2017-12-29T07:23:33.318Z,2.20
2017-12-29T07:26:00.979Z,2.10
2017-12-29T07:28:29.428Z,2.10
2017-12-29T07:30:57.120Z,2.10
2017-12-29T07:33:25.530Z,2.20
2017-12-29T07:35:53.169Z,2.10
2017-12-29T07:38:21.810Z,2.20
2017-12-29T07:40:49.529Z,2.20
2017-12-29T07:43:17.920Z,2.20
2017-12-29T07:45:45.674Z,2.20
2017-12-29T07:48:13.377Z,2.20
2017-12-29T07:50:41.119Z,2.20
2017-12-29T07:53:08.854Z,2.20
2017-12-29T07:55:37.245Z,2.30
2017-12-29T07:58:04.985Z,2.20
2017-12-29T08:00:32.718Z,2.20
2017-12-29T08:03:00.360Z,2.30
2017-12-29T08:05:28.019Z,2.30
2017-12-29T08:07:55.726Z,2.20
2017-12-29T08:10:23.392Z,2.30
2017-12-29T08:12:51.018Z,2.30
2017-12-29T08:15:18.702Z,2.40
2017-12-29T08:17:46.365Z,2.80
2017-12-29T08:20:14.065Z,2.40
2017-12-29T08:22:42.018Z,2.40
2017-12-29T08:25:10.471Z,2.40
2017-12-29T08:32:07.973Z,2.40
2017-12-29T08:34:35.658Z,2.40
2017-12-29T08:37:03.278Z,2.50
2017-12-29T08:39:34.432Z,2.50
2017-12-29T08:42:02.150Z,2.50
2017-12-29T08:44:29.767Z,2.60
2017-12-29T08:46:57.740Z,2.50
2017-12-29T08:49:26.285Z,2.80
2017-12-29T08:51:56.822Z,2.80
2017-12-29T08:54:25.299Z,2.60
2017-12-29T08:56:52.963Z,2.60
2017-12-29T08:59:21.561Z,2.60
2017-12-29T09:01:49.388Z,2.60
2017-12-29T09:04:17.024Z,2.70
2017-12-29T09:06:44.697Z,2.60
2017-12-29T09:09:15.550Z,2.70
2017-12-29T09:11:44.597Z,2.50
2017-12-29T09:14:12.285Z,2.70
2017-12-29T09:16:39.997Z,2.60
2017-12-29T09:19:07.670Z,2.50
2017-12-29T09:21:35.416Z,2.60
2017-12-29T09:24:03.117Z,2.60
2017-12-29T09:26:30.770Z,2.60
2017-12-29T09:28:59.228Z,2.60
2017-12-29T09:31:26.969Z,2.60
2017-12-29T09:33:54.658Z,2.60
2017-12-29T09:36:23.031Z,2.70
2017-12-29T09:38:51.510Z,2.90
2017-12-29T09:41:21.960Z,2.90
2017-12-29T09:43:51.033Z,2.70
2017-12-29T09:46:18.714Z,2.80
2017-12-29T09:48:47.131Z,2.90
2017-12-29T09:51:16.614Z,2.90
2017-12-29T09:53:45.981Z,2.80
2017-12-29T09:56:13.625Z,2.80
2017-12-29T09:58:41.275Z,2.80
2017-12-29T10:01:15.007Z,2.70
2017-12-29T10:03:43.936Z,2.80
2017-12-29T10:06:11.874Z,2.90
2017-12-29T10:08:39.526Z,2.80
2017-12-29T10:11:07.193Z,2.90
2017-12-29T10:13:37.127Z,3.00
2017-12-29T10:16:05.828Z,3.00
2017-12-29T10:18:33.488Z,3.00
2017-12-29T10:21:01.197Z,3.00
2017-12-29T10:23:28.873Z,3.00
2017-12-29T10:26:00.495Z,3.30
2017-12-29T10:28:28.117Z,3.00
2017-12-29T10:30:56.487Z,3.20
2017-12-29T10:33:28.771Z,3.20
2017-12-29T10:35:56.424Z,3.20
2017-12-29T10:38:24.161Z,3.20
2017-12-29T10:40:52.057Z,3.20
2017-12-29T10:43:20.150Z,3.20
2017-12-29T10:45:55.463Z,3.30
2017-12-29T10:48:23.844Z,3.20
2017-12-29T10:50:51.493Z,3.20
2017-12-29T10:53:20.294Z,3.30
2017-12-29T10:55:54.469Z,3.20
2017-12-29T10:58:22.170Z,3.20
2017-12-29T11:00:49.796Z,3.20
2017-12-29T11:03:17.628Z,3.30
2017-12-29T11:05:49.141Z,3.40
2017-12-29T11:08:17.530Z,3.40
2017-12-29T11:10:45.187Z,3.40
2017-12-29T11:13:17.209Z,3.50
2017-12-29T11:15:49.659Z,3.50
2017-12-29T11:18:17.421Z,3.50
2017-12-29T11:20:45.121Z,3.70
2017-12-29T11:23:16.559Z,3.40
2017-12-29T11:25:44.216Z,3.50
2017-12-29T11:28:14.789Z,3.50
2017-12-29T11:30:42.951Z,3.50
2017-12-29T11:33:13.282Z,3.40
2017-12-29T11:35:42.956Z,3.60
2017-12-29T11:38:10.594Z,3.60
2017-12-29T11:40:38.264Z,3.50
2017-12-29T11:43:06.776Z,3.50
2017-12-29T11:45:41.172Z,3.50
2017-12-29T11:48:08.884Z,3.60
2017-12-29T11:50:37.592Z,3.60
2017-12-29T11:53:05.204Z,3.70
2017-12-29T11:55:32.877Z,3.50
2017-12-29T11:58:01.289Z,3.60
2017-12-29T12:00:28.900Z,3.50
2017-12-29T12:02:56.578Z,3.50
2017-12-29T12:07:59.849Z,3.60
2017-12-29T12:10:27.541Z,3.70
2017-12-29T12:12:55.996Z,3.90
2017-12-29T12:15:23.699Z,3.90
2017-12-29T12:18:01.810Z,3.70
2017-12-29T12:20:29.574Z,3.70
2017-12-29T12:22:57.204Z,3.80
2017-12-29T12:25:24.849Z,3.70
2017-12-29T12:27:52.586Z,3.70
2017-12-29T12:30:20.245Z,3.60
2017-12-29T12:32:47.926Z,3.60
2017-12-29T12:35:17.617Z,3.50
2017-12-29T12:37:45.257Z,3.70
2017-12-29T12:40:12.910Z,3.70
2017-12-29T12:42:40.770Z,3.70
2017-12-29T12:47:41.865Z,3.70
2017-12-29T12:50:13.038Z,3.70
2017-12-29T12:52:40.685Z,3.70
2017-12-29T12:55:08.441Z,3.70
2017-12-29T12:57:38.311Z,3.60
2017-12-29T13:00:05.958Z,3.80
2017-12-29T13:02:33.861Z,3.70
2017-12-29T13:05:01.561Z,3.90
2017-12-29T13:07:29.209Z,3.80
2017-12-29T13:09:59.052Z,3.70
2017-12-29T13:12:27.468Z,3.80
2017-12-29T13:14:59.983Z,3.80
2017-12-29T13:17:30.297Z,3.90
2017-12-29T13:19:58.901Z,3.80
2017-12-29T13:22:27.372Z,3.80
2017-12-29T13:24:55.931Z,3.70
2017-12-29T13:27:29.583Z,3.70
2017-12-29T13:29:57.246Z,3.70
2017-12-29T13:32:24.874Z,3.80
2017-12-29T13:34:52.679Z,3.80
2017-12-29T13:37:20.506Z,3.60
2017-12-29T13:39:48.134Z,3.70
2017-12-29T13:42:15.838Z,3.80
2017-12-29T13:44:43.500Z,3.70
2017-12-29T13:47:11.774Z,3.70
2017-12-29T13:49:39.577Z,3.70
2017-12-29T13:52:08.049Z,3.70
2017-12-29T13:54:36.545Z,3.80
2017-12-29T13:57:04.339Z,3.80
2017-12-29T13:59:32.072Z,3.80
2017-12-29T14:01:59.681Z,3.70
2017-12-29T14:04:27.370Z,3.80
2017-12-29T14:06:55.821Z,3.80
2017-12-29T14:09:23.585Z,3.70
2017-12-29T14:11:51.266Z,3.80
2017-12-29T14:14:18.927Z,3.70
2017-12-29T14:16:46.556Z,3.80
2017-12-29T14:19:24.623Z,3.90
2017-12-29T14:21:54.303Z,3.90
2017-12-29T14:24:22.870Z,3.80
2017-12-29T14:26:50.885Z,3.90
2017-12-29T14:29:19.393Z,4.00
2017-12-29T14:31:47.059Z,4.00
2017-12-29T14:34:18.581Z,3.80
2017-12-29T14:36:46.666Z,3.80
2017-12-29T14:39:14.362Z,3.80
2017-12-29T14:41:42.074Z,3.80
2017-12-29T14:44:09.731Z,3.90
2017-12-29T14:46:37.351Z,3.70
2017-12-29T14:49:05.130Z,3.70
2017-12-29T14:51:32.815Z,3.70
2017-12-29T14:54:04.538Z,3.70
2017-12-29T14:56:32.380Z,3.70
2017-12-29T14:59:00.039Z,3.80
2017-12-29T15:01:28.454Z,3.60
2017-12-29T15:03:59.873Z,3.80
2017-12-29T15:06:27.533Z,3.90
2017-12-29T15:08:55.177Z,3.90
2017-12-29T15:11:23.089Z,4.10
2017-12-29T15:13:50.723Z,4.60
2017-12-29T15:16:18.374Z,4.80
2017-12-29T15:18:46.178Z,4.30
2017-12-29T15:21:14.637Z,4.20
2017-12-29T15:23:42.318Z,4.20
2017-12-29T15:26:10.634Z,4.20
2017-12-29T15:28:38.314Z,4.80
2017-12-29T15:31:06.534Z,4.40
2017-12-29T15:33:34.540Z,4.30
2017-12-29T15:36:02.263Z,4.50
2017-12-29T15:38:29.916Z,4.80
2017-12-29T15:40:58.541Z,5.00
2017-12-29T15:43:26.748Z,5.20
2017-12-29T15:45:54.392Z,5.00
2017-12-29T15:48:22.274Z,5.00
2017-12-29T15:50:50.877Z,4.70
2017-12-29T15:53:18.655Z,4.60
2017-12-29T15:55:46.495Z,4.30
2017-12-29T15:58:14.465Z,4.30
2017-12-29T16:00:44.666Z,4.50
2017-12-29T16:03:12.670Z,4.50
2017-12-29T16:05:40.760Z,4.10
2017-12-29T16:08:08.724Z,4.00
2017-12-29T16:10:36.486Z,4.00
2017-12-29T16:13:04.977Z,3.70
2017-12-29T16:15:32.659Z,3.70
2017-12-29T16:18:00.523Z,3.50
2017-12-29T16:20:28.962Z,3.50
2017-12-29T16:22:56.662Z,3.50
2017-12-29T16:25:24.821Z,3.40
2017-12-29T16:27:52.521Z,3.60
2017-12-29T16:30:20.167Z,3.60
2017-12-29T16:32:47.994Z,4.10
2017-12-29T16:35:15.727Z,3.70
2017-12-29T16:37:43.416Z,3.60
2017-12-29T16:40:11.667Z,3.50
2017-12-29T16:42:39.344Z,3.70
2017-12-29T16:45:07.003Z,3.60
2017-12-29T16:47:35.609Z,3.70
2017-12-29T16:50:03.296Z,3.40
2017-12-29T16:52:30.969Z,3.60
2017-12-29T16:55:00.343Z,3.60
2017-12-29T16:57:28.009Z,3.60
2017-12-29T17:00:02.813Z,4.10
2017-12-29T17:02:30.468Z,3.90
2017-12-29T17:04:58.329Z,3.50
2017-12-29T17:07:27.664Z,3.60
2017-12-29T17:09:56.214Z,3.70
2017-12-29T17:12:24.758Z,3.70
2017-12-29T17:14:52.481Z,4.10
2017-12-29T17:17:20.593Z,4.00
2017-12-29T17:19:48.276Z,3.80
2017-12-29T17:22:16.198Z,3.90
2017-12-29T17:24:44.531Z,4.00
2017-12-29T17:27:14.243Z,3.60
2017-12-29T17:29:41.917Z,4.30
2017-12-29T17:32:09.664Z,4.20
2017-12-29T17:34:39.938Z,4.60
2017-12-29T17:37:07.626Z,4.60
2017-12-29T17:39:36.675Z,4.70
2017-12-29T17:42:04.439Z,4.80
2017-12-29T17:44:32.181Z,4.60
2017-12-29T17:47:01.034Z,4.70
2017-12-29T17:49:28.897Z,4.80
2017-12-29T17:51:56.638Z,4.90
2017-12-29T17:54:24.341Z,5.00
2017-12-29T17:56:52.076Z,4.90
2017-12-29T17:59:19.872Z,5.00
2017-12-29T18:01:47.562Z,4.90
2017-12-29T18:04:15.325Z,5.00
2017-12-29T18:06:42.969Z,5.10
2017-12-29T18:09:10.612Z,5.10
2017-12-29T18:11:38.447Z,5.20
2017-12-29T18:14:06.207Z,5.10
2017-12-29T18:16:34.668Z,5.10
2017-12-29T18:19:02.376Z,5.10
2017-12-29T18:21:30.043Z,5.20
2017-12-29T18:23:57.734Z,4.70
2017-12-29T18:26:25.471Z,4.50
2017-12-29T18:28:53.113Z,4.30
2017-12-29T18:31:20.788Z,3.90
2017-12-29T18:33:48.511Z,4.70
2017-12-29T18:36:16.196Z,4.70
2017-12-29T18:38:43.992Z,4.80
2017-12-29T18:41:11.695Z,4.90
2017-12-29T18:43:39.319Z,5.00
2017-12-29T18:46:06.978Z,4.70
2017-12-29T18:48:34.808Z,4.70
2017-12-29T18:51:02.494Z,4.80
2017-12-29T18:53:30.157Z,4.90
2017-12-29T18:55:57.928Z,5.00
2017-12-29T18:58:25.594Z,4.60
2017-12-29T19:00:53.256Z,4.90
2017-12-29T19:03:21.091Z,5.00
2017-12-29T19:05:48.740Z,4.60
2017-12-29T19:08:17.059Z,4.70
2017-12-29T19:10:44.836Z,4.70
2017-12-29T19:13:12.548Z,4.80
2017-12-29T19:15:40.220Z,4.90
2017-12-29T19:18:08.708Z,4.80
2017-12-29T19:20:36.439Z,4.50
2017-12-29T19:23:04.879Z,4.60
2017-12-29T19:25:32.932Z,4.60
2017-12-29T19:28:01.237Z,5.20
2017-12-29T19:30:28.912Z,4.70
2017-12-29T19:32:56.647Z,4.70
2017-12-29T19:35:25.322Z,4.70
2017-12-29T19:37:52.972Z,4.60
2017-12-29T19:40:20.814Z,4.70
2017-12-29T19:42:48.468Z,4.50
2017-12-29T19:45:16.377Z,4.60
2017-12-29T19:47:44.253Z,4.60
2017-12-29T19:50:11.877Z,4.50
2017-12-29T19:52:39.555Z,4.60
2017-12-29T19:55:07.352Z,4.60
2017-12-29T19:57:35.882Z,4.30
2017-12-29T20:00:04.278Z,4.50
2017-12-29T20:02:31.966Z,4.50
2017-12-29T20:04:59.731Z,4.60
2017-12-29T20:07:27.393Z,4.60
2017-12-29T20:09:55.062Z,4.60
2017-12-29T20:12:22.776Z,4.30
2017-12-29T20:14:50.531Z,4.20
2017-12-29T20:17:19.119Z,4.60
2017-12-29T20:19:46.812Z,4.50
2017-12-29T20:22:14.511Z,4.30
2017-12-29T20:24:42.378Z,4.20
2017-12-29T20:27:11.131Z,4.10
2017-12-29T20:29:38.937Z,4.20
2017-12-29T20:32:07.514Z,4.50
2017-12-29T20:34:35.278Z,4.50
2017-12-29T20:37:03.280Z,4.30
2017-12-29T20:39:31.155Z,4.40
2017-12-29T20:41:59.090Z,4.30
2017-12-29T20:44:26.825Z,4.40
2017-12-29T20:46:54.560Z,4.30
2017-12-29T20:49:22.211Z,4.40
2017-12-29T20:51:49.854Z,4.30
2017-12-29T20:54:17.634Z,4.40
2017-12-29T20:56:45.376Z,4.30
2017-12-29T20:59:13.080Z,4.20
2017-12-29T21:01:41.643Z,4.30
2017-12-29T21:04:09.394Z,4.20
2017-12-29T21:06:37.091Z,4.40
2017-12-29T21:09:04.910Z,4.30
2017-12-29T21:11:32.583Z,4.40
2017-12-29T21:14:00.260Z,4.10
2017-12-29T21:16:28.261Z,4.10
2017-12-29T21:18:56.060Z,4.20
2017-12-29T21:21:23.787Z,4.10
2017-12-29T21:23:51.610Z,4.00
2017-12-29T21:26:19.357Z,3.90
2017-12-29T21:28:47.059Z,4.10
2017-12-29T21:31:14.843Z,4.20
2017-12-29T21:33:42.551Z,4.00
2017-12-29T21:36:10.376Z,3.90
2017-12-29T21:38:38.148Z,3.70
2017-12-29T21:41:05.832Z,3.80
2017-12-29T21:43:33.552Z,3.90
2017-12-29T21:46:01.364Z,4.00
2017-12-29T21:48:29.845Z,4.00
2017-12-29T21:50:57.736Z,3.90
2017-12-29T21:53:26.294Z,4.00
2017-12-29T21:55:53.972Z,4.10
2017-12-29T21:58:22.379Z,4.00
2017-12-29T22:00:50.084Z,4.00
2017-12-29T22:03:17.688Z,4.00
2017-12-29T22:05:45.342Z,3.80
2017-12-29T22:08:13.626Z,3.80
2017-12-29T22:10:41.235Z,3.90
2017-12-29T22:13:08.890Z,4.00
2017-12-29T22:15:36.776Z,3.90
2017-12-29T22:18:05.187Z,3.70
2017-12-29T22:20:32.825Z,3.70
2017-12-29T22:23:01.440Z,4.10
2017-12-29T22:25:29.094Z,4.10
2017-12-29T22:27:56.806Z,3.90
2017-12-29T22:30:24.549Z,4.00
2017-12-29T22:32:52.165Z,4.10
2017-12-29T22:35:19.823Z,3.80
2017-12-29T22:37:47.746Z,3.90
2017-12-29T22:40:15.392Z,3.80
2017-12-29T22:42:43.048Z,3.70
2017-12-29T22:45:10.843Z,3.80
2017-12-29T22:47:38.511Z,3.60
2017-12-29T22:50:06.170Z,3.70
2017-12-29T22:52:34.033Z,3.70
2017-12-29T22:55:01.766Z,3.50
2017-12-29T22:57:33.493Z,3.50
2017-12-29T23:00:01.138Z,3.60
2017-12-29T23:02:29.600Z,3.70
2017-12-29T23:04:57.352Z,3.60
2017-12-29T23:07:25.110Z,3.70
2017-12-29T23:09:52.728Z,3.90
2017-12-29T23:12:20.381Z,3.70
2017-12-29T23:14:47.998Z,3.80
2017-12-29T23:17:15.613Z,3.60
2017-12-29T23:19:43.263Z,3.60
2017-12-29T23:22:11.666Z,3.50
2017-12-29T23:24:39.312Z,3.40
2017-12-29T23:27:07.076Z,3.60
2017-12-29T23:29:34.772Z,3.70
2017-12-29T23:32:02.408Z,3.80
2017-12-29T23:34:30.145Z,3.60
2017-12-29T23:36:58.533Z,3.60
2017-12-29T23:39:26.158Z,3.60
2017-12-29T23:41:53.820Z,3.50
2017-12-29T23:44:21.459Z,3.50
2017-12-29T23:46:49.089Z,3.40
2017-12-29T23:49:16.783Z,3.50
2017-12-29T23:51:44.528Z,3.50
2017-12-29T23:54:12.151Z,3.50
2017-12-29T23:56:40.579Z,3.50
2017-12-29T23:59:08.195Z,3.50
